F/V Attalaya Berria — FHCB — position and weather

sailwx.info

Track history (hours):
 
Tides and Currents Weather Stations Pressure Air Temp Water Temp Dewpoint Dewpoint Depression Visibility Wind Speed Wind Dir Waves Ship Positions

F/V Attalaya Berria

Last reported at 2015-May-19 04:18 UTC. Time now 2015-May-22 13:00 UTC.
Position N 43°22' W 001°47'.

Length 26 m.

Type: Fishing. MMSI: 228315000.

Date/timePositionNaut miles runAvg speedWind from/ knotsBaromVisibWave heightAir tempDewpointWater temp
2015-May-19 04:18N 43°22' W 001°47'5 6.6
2015-May-19 03:33N 43°27' W 001°44'9 8.7
2015-May-19 02:33N 43°31' W 001°34'7 7.0
2015-May-19 01:33N 43°26' W 001°41'5 5.0
2015-May-19 00:33N 43°24' W 001°47'5 5.0
2015-May-18 23:32N 43°27' W 001°42'3 2.9
2015-May-18 22:33N 43°26' W 001°38'3 2.8
2015-May-18 21:33N 43°29' W 001°38'0 0.4
2015-May-18 20:33N 43°29' W 001°37'2 2.0
2015-May-18 19:33N 43°28' W 001°40'8 0.6
2015-May-18 06:09N 43°22' W 001°47'3 4.6
2015-May-18 05:33N 43°24' W 001°44'3 3.5
2015-May-18 04:33N 43°23' W 001°40'6 5.8
2015-May-18 03:33N 43°29' W 001°38'1 1.4
2015-May-18 02:33N 43°30' W 001°37'2 2.0
2015-May-18 01:33N 43°28' W 001°39'0 0.1
2015-May-18 00:33N 43°29' W 001°39'4 3.8
2015-May-17 23:33N 43°31' W 001°34'3 3.1
2015-May-17 22:33N 43°29' W 001°38'2 1.7
2015-May-17 21:33N 43°30' W 001°36'1 0.7
2015-May-17 20:33N 43°30' W 001°36'2 2.4
2015-May-17 19:33N 43°28' W 001°39'  
2015-May-14 08:32N 43°24' W 001°49'1 0.1
2015-May-14 03:32N 43°24' W 001°49'6 5.8
2015-May-14 02:32N 43°27' W 001°43'3 2.7
2015-May-14 01:33N 43°28' W 001°39'4 4.5
2015-May-14 00:34N 43°31' W 001°34'0 0.3
2015-May-13 23:33N 43°31' W 001°35'1 0.5
2015-May-13 22:33N 43°31' W 001°34'0 0.4
2015-May-13 21:33N 43°31' W 001°35'1 1.0
2015-May-13 20:33N 43°30' W 001°36'6 5.7
2015-May-13 19:33N 43°27' W 001°43'5 0.3
2015-May-13 03:33N 43°23' W 001°47'10 9.6
2015-May-13 02:33N 43°29' W 001°37'3 3.1
2015-May-13 01:33N 43°28' W 001°41'3 2.6
2015-May-13 00:33N 43°29' W 001°38'4 3.5
2015-May-12 23:33N 43°31' W 001°34'3 3.3
2015-May-12 22:33N 43°29' W 001°37'1 1.0
2015-May-12 21:33N 43°30' W 001°37'2 2.5
2015-May-12 20:33N 43°31' W 001°34'6 5.8
2015-May-12 19:33N 43°28' W 001°41'7 7.2
2015-May-12 18:33N 43°22' W 001°47'1 0.1
2015-May-12 07:33N 43°23' W 001°47'3 1.1
2015-May-12 04:19N 43°23' W 001°52'8 9.8
2015-May-12 03:33N 43°27' W 001°43'7 6.6
2015-May-12 02:33N 43°30' W 001°35'1 1.0
2015-May-12 01:33N 43°30' W 001°36'2 1.6
2015-May-12 00:33N 43°31' W 001°34'0 0.4
2015-May-11 23:32N 43°31' W 001°35'0 0.3
2015-May-11 22:33N 43°31' W 001°34'0 0.4
2015-May-11 21:33N 43°31' W 001°34'2 1.9
2015-May-11 20:33N 43°30' W 001°36'2 2.4
2015-May-11 19:33N 43°28' W 001°39'9 8.8
2015-May-11 18:33N 43°22' W 001°47'  
Track history (hours):
 
Tides and Currents Weather Stations Pressure Air Temp Water Temp Dewpoint Dewpoint Depression Visibility Wind Speed Wind Dir Waves Ship Positions

F/V Attalaya Berria

Last reported at 2015-May-19 04:18 UTC. Time now 2015-May-22 13:00 UTC.
Position N 43°22' W 001°47'.

Length 26 m.

Type: Fishing. MMSI: 228315000.

Date/timePositionNaut miles runAvg speedWind from/ knotsBaromVisibWave heightAir tempDewpointWater temp
2015-May-19 04:18N 43°22' W 001°47'5 6.6
2015-May-19 03:33N 43°27' W 001°44'9 8.7
2015-May-19 02:33N 43°31' W 001°34'7 7.0
2015-May-19 01:33N 43°26' W 001°41'5 5.0
2015-May-19 00:33N 43°24' W 001°47'5 5.0
2015-May-18 23:32N 43°27' W 001°42'3 2.9
2015-May-18 22:33N 43°26' W 001°38'3 2.8
2015-May-18 21:33N 43°29' W 001°38'0 0.4
2015-May-18 20:33N 43°29' W 001°37'2 2.0
2015-May-18 19:33N 43°28' W 001°40'8 0.6
2015-May-18 06:09N 43°22' W 001°47'3 4.6
2015-May-18 05:33N 43°24' W 001°44'3 3.5
2015-May-18 04:33N 43°23' W 001°40'6 5.8
2015-May-18 03:33N 43°29' W 001°38'1 1.4
2015-May-18 02:33N 43°30' W 001°37'2 2.0
2015-May-18 01:33N 43°28' W 001°39'0 0.1
2015-May-18 00:33N 43°29' W 001°39'4 3.8
2015-May-17 23:33N 43°31' W 001°34'3 3.1
2015-May-17 22:33N 43°29' W 001°38'2 1.7
2015-May-17 21:33N 43°30' W 001°36'1 0.7
2015-May-17 20:33N 43°30' W 001°36'2 2.4
2015-May-17 19:33N 43°28' W 001°39'  
2015-May-14 08:32N 43°24' W 001°49'1 0.1
2015-May-14 03:32N 43°24' W 001°49'6 5.8
2015-May-14 02:32N 43°27' W 001°43'3 2.7
2015-May-14 01:33N 43°28' W 001°39'4 4.5
2015-May-14 00:34N 43°31' W 001°34'0 0.3
2015-May-13 23:33N 43°31' W 001°35'1 0.5
2015-May-13 22:33N 43°31' W 001°34'0 0.4
2015-May-13 21:33N 43°31' W 001°35'1 1.0
2015-May-13 20:33N 43°30' W 001°36'6 5.7
2015-May-13 19:33N 43°27' W 001°43'5 0.3
2015-May-13 03:33N 43°23' W 001°47'10 9.6
2015-May-13 02:33N 43°29' W 001°37'3 3.1
2015-May-13 01:33N 43°28' W 001°41'3 2.6
2015-May-13 00:33N 43°29' W 001°38'4 3.5
2015-May-12 23:33N 43°31' W 001°34'3 3.3
2015-May-12 22:33N 43°29' W 001°37'1 1.0
2015-May-12 21:33N 43°30' W 001°37'2 2.5
2015-May-12 20:33N 43°31' W 001°34'6 5.8
2015-May-12 19:33N 43°28' W 001°41'7 7.2
2015-May-12 18:33N 43°22' W 001°47'1 0.1
2015-May-12 07:33N 43°23' W 001°47'3 1.1
2015-May-12 04:19N 43°23' W 001°52'8 9.8
2015-May-12 03:33N 43°27' W 001°43'7 6.6
2015-May-12 02:33N 43°30' W 001°35'1 1.0
2015-May-12 01:33N 43°30' W 001°36'2 1.6
2015-May-12 00:33N 43°31' W 001°34'0 0.4
2015-May-11 23:32N 43°31' W 001°35'0 0.3
2015-May-11 22:33N 43°31' W 001°34'0 0.4
2015-May-11 21:33N 43°31' W 001°34'2 1.9
2015-May-11 20:33N 43°30' W 001°36'2 2.4
2015-May-11 19:33N 43°28' W 001°39'9 8.8
2015-May-11 18:33N 43°22' W 001°47'  

Dump ship's entire track history